Time;durP1;ratioP1;P1;durP2;ratioP2;P2;SDS_P1;SDS_P2;PMS_P1;PMS_P2;Temp;Humidity;BMP_temperature;BMP_pressure;BME280_temperature;BME280_humidity;BME280_pressure;Samples;Min_cycle;Max_cycle;Signal;HPM_P1;HPM_P2
2021/04/01 00:01:49;;;;;;;13.63;3.17;;;17.20;53.40;;;;;;5073520;28;20044;-78
2021/04/01 00:04:15;;;;;;;16.58;3.53;;;17.20;53.40;;;;;;5073922;28;20055;-78
2021/04/01 00:06:40;;;;;;;12.13;2.83;;;17.10;53.40;;;;;;5073071;28;20393;-78
2021/04/01 00:09:06;;;;;;;13.85;3.35;;;17.10;53.20;;;;;;5089407;28;20032;-78
2021/04/01 00:11:33;;;;;;;14.15;3.35;;;17.00;53.40;;;;;;5073298;28;20078;-78
2021/04/01 00:14:03;;;;;;;12.07;4.28;;;17.00;53.60;;;;;;5074902;28;20043;-78
2021/04/01 00:16:30;;;;;;;16.95;3.55;;;17.00;53.70;;;;;;5074238;28;20040;-78
2021/04/01 00:18:56;;;;;;;11.07;3.20;;;17.00;53.80;;;;;;5073076;28;20048;-78
2021/04/01 00:21:22;;;;;;;10.25;3.00;;;17.00;53.80;;;;;;5074436;28;20031;-79
2021/04/01 00:23:47;;;;;;;14.63;3.65;;;17.00;53.90;;;;;;5074203;28;20044;-77
2021/04/01 00:26:13;;;;;;;15.02;3.42;;;16.90;54.00;;;;;;5074180;28;20036;-78
2021/04/01 00:28:39;;;;;;;17.58;4.10;;;16.90;54.10;;;;;;5074744;28;20047;-77
2021/04/01 00:31:05;;;;;;;15.15;3.70;;;16.90;54.10;;;;;;5074131;28;20166;-77
2021/04/01 00:33:31;;;;;;;16.25;3.33;;;16.90;54.20;;;;;;5073144;28;20105;-77
2021/04/01 00:35:56;;;;;;;11.13;3.08;;;16.90;54.20;;;;;;5073143;28;20037;-77
2021/04/01 00:38:22;;;;;;;12.27;3.45;;;16.80;54.40;;;;;;5074395;28;20643;-78
2021/04/01 00:40:48;;;;;;;13.00;3.67;;;16.80;54.30;;;;;;5074236;28;20124;-78
2021/04/01 00:43:14;;;;;;;11.23;3.20;;;16.70;54.10;;;;;;5073862;28;20068;-78
2021/04/01 00:45:40;;;;;;;11.75;3.38;;;16.80;54.20;;;;;;5074074;28;20056;-78
2021/04/01 00:48:06;;;;;;;19.92;3.70;;;16.70;54.10;;;;;;5074101;28;20043;-78
2021/04/01 00:50:32;;;;;;;15.35;3.28;;;16.80;54.00;;;;;;5074176;28;20029;-78
2021/04/01 00:52:59;;;;;;;15.85;3.35;;;16.70;54.10;;;;;;5072736;28;20093;-77
2021/04/01 00:55:25;;;;;;;12.77;3.30;;;16.70;54.60;;;;;;5074043;28;20517;-77
2021/04/01 00:57:53;;;;;;;13.85;3.88;;;16.70;54.40;;;;;;5073166;28;20044;-78
2021/04/01 01:00:23;;;;;;;12.88;3.30;;;16.70;54.40;;;;;;5074317;28;20098;-78
2021/04/01 01:02:49;;;;;;;10.48;3.10;;;16.60;54.10;;;;;;5073779;28;20072;-78
2021/04/01 01:05:16;;;;;;;8.98;2.47;;;16.60;54.20;;;;;;5074239;28;20060;-78
2021/04/01 01:07:42;;;;;;;15.68;3.50;;;16.60;54.20;;;;;;5074075;28;20040;-78
2021/04/01 01:10:14;;;;;;;16.50;4.15;;;16.60;54.30;;;;;;5072481;28;20114;-77
2021/04/01 01:12:42;;;;;;;10.40;3.13;;;16.50;54.60;;;;;;5072453;28;20041;-78
2021/04/01 01:15:09;;;;;;;10.05;3.00;;;16.50;54.70;;;;;;5072404;28;20047;-78
2021/04/01 01:17:35;;;;;;;14.73;3.35;;;16.40;54.90;;;;;;5072719;28;20044;-78
2021/04/01 01:20:04;;;;;;;17.83;3.65;;;16.40;54.90;;;;;;5089411;28;20045;-78
2021/04/01 01:22:30;;;;;;;14.45;2.97;;;16.40;54.90;;;;;;5074499;28;20115;-78
2021/04/01 01:24:56;;;;;;;16.42;3.45;;;16.40;54.40;;;;;;5077360;28;20044;-78
2021/04/01 01:27:22;;;;;;;11.23;3.40;;;16.40;54.70;;;;;;5076934;28;20059;-78
2021/04/01 01:29:48;;;;;;;14.80;3.90;;;16.40;53.60;;;;;;5093052;28;20484;-77
2021/04/01 01:32:19;;;;;;;12.68;3.40;;;16.40;53.30;;;;;;5077166;28;20040;-77
2021/04/01 01:34:48;;;;;;;9.57;3.08;;;16.40;53.00;;;;;;5076179;28;20047;-77
2021/04/01 01:37:14;;;;;;;13.02;3.13;;;16.40;52.70;;;;;;5077348;28;20501;-78
2021/04/01 01:39:40;;;;;;;14.00;3.65;;;16.40;52.80;;;;;;5076815;28;20111;-77
2021/04/01 01:42:07;;;;;;;10.43;3.28;;;16.40;52.50;;;;;;5075958;28;20048;-77
2021/04/01 01:44:33;;;;;;;16.58;3.30;;;16.40;52.30;;;;;;5077126;28;20037;-76
2021/04/01 01:46:59;;;;;;;12.13;2.90;;;16.40;52.20;;;;;;5076889;28;20448;-77
2021/04/01 01:49:25;;;;;;;13.45;3.15;;;16.40;52.20;;;;;;5075487;28;20035;-76
2021/04/01 01:51:52;;;;;;;11.48;2.92;;;16.40;51.90;;;;;;5076021;28;20127;-78
2021/04/01 01:54:18;;;;;;;17.58;3.42;;;16.30;51.70;;;;;;5076480;28;20040;-78
2021/04/01 01:56:45;;;;;;;15.70;3.40;;;16.30;51.50;;;;;;5077254;28;20036;-77
2021/04/01 01:59:11;;;;;;;11.48;3.10;;;16.30;51.60;;;;;;5075344;28;20075;-77
2021/04/01 02:01:37;;;;;;;15.88;3.30;;;16.30;51.80;;;;;;5075562;28;20056;-76
2021/04/01 02:04:04;;;;;;;9.70;3.20;;;16.20;51.80;;;;;;5076536;28;20037;-77
2021/04/01 02:06:31;;;;;;;12.40;2.65;;;16.20;52.30;;;;;;5075290;28;20044;-77
2021/04/01 02:08:58;;;;;;;8.93;3.00;;;16.20;52.40;;;;;;5077327;28;20482;-78
2021/04/01 02:11:26;;;;;;;13.25;3.25;;;16.10;52.50;;;;;;5075354;28;20033;-78
2021/04/01 02:13:53;;;;;;;10.18;2.60;;;16.00;52.60;;;;;;5077366;28;20059;-77
2021/04/01 02:16:19;;;;;;;11.15;2.60;;;16.00;52.50;;;;;;5093223;28;20381;-77
2021/04/01 02:18:45;;;;;;;12.02;3.42;;;16.00;52.40;;;;;;5075217;28;20090;-77
2021/04/01 02:21:13;;;;;;;8.63;2.70;;;15.90;52.50;;;;;;5075145;28;20536;-78
2021/04/01 02:23:40;;;;;;;17.73;3.42;;;15.90;52.70;;;;;;5075397;28;20545;-77
2021/04/01 02:26:07;;;;;;;9.55;2.70;;;15.90;52.80;;;;;;5076344;28;20038;-77
2021/04/01 02:28:34;;;;;;;18.50;3.67;;;15.90;53.30;;;;;;5075445;28;20071;-77
2021/04/01 02:31:19;;;;;;;12.45;3.60;;;15.80;53.40;;;;;;5076563;28;20046;-76
2021/04/01 02:33:45;;;;;;;14.40;3.05;;;15.80;53.80;;;;;;5074554;28;20044;-77
2021/04/01 02:36:10;;;;;;;13.32;3.50;;;15.70;54.00;;;;;;5092064;28;20173;-77
2021/04/01 02:38:36;;;;;;;14.18;3.17;;;15.60;54.30;;;;;;5092054;28;20048;-79
2021/04/01 02:41:02;;;;;;;11.82;2.90;;;15.60;54.20;;;;;;5075971;28;20070;-77
2021/04/01 02:45:54;;;;;;;13.90;3.08;;;15.50;54.70;;;;;;5076025;28;20023;-78
2021/04/01 02:48:20;;;;;;;11.43;2.80;;;15.50;54.80;;;;;;5076069;28;20190;-78
2021/04/01 02:50:46;;;;;;;11.73;3.17;;;15.50;54.60;;;;;;5076127;28;20556;-77
2021/04/01 02:53:12;;;;;;;9.82;3.65;;;15.50;54.80;;;;;;5074788;28;20033;-78
2021/04/01 02:55:37;;;;;;;10.25;3.35;;;15.40;54.90;;;;;;5075975;28;20032;-79
2021/04/01 02:58:04;;;;;;;8.40;2.90;;;15.30;54.80;;;;;;5074811;28;20037;-78
2021/04/01 03:00:32;;;;;;;9.15;3.33;;;15.30;54.80;;;;;;5076281;28;20128;-77
2021/04/01 03:03:03;;;;;;;8.45;2.95;;;15.30;54.70;;;;;;5075520;28;20036;-78
2021/04/01 03:05:29;;;;;;;8.23;2.83;;;15.20;54.70;;;;;;5075815;28;20036;-77
2021/04/01 03:07:55;;;;;;;10.23;2.83;;;15.20;55.30;;;;;;5091733;28;20033;-77
2021/04/01 03:10:20;;;;;;;11.23;3.15;;;15.20;54.80;;;;;;5075661;28;20132;-77
2021/04/01 03:12:46;;;;;;;10.02;2.70;;;15.20;54.80;;;;;;5074559;28;20035;-77
2021/04/01 03:15:13;;;;;;;14.35;3.05;;;15.10;54.30;;;;;;5074508;28;20512;-77
2021/04/01 03:17:40;;;;;;;10.38;2.92;;;15.10;54.40;;;;;;5075473;28;20036;-78
2021/04/01 03:20:08;;;;;;;8.90;3.25;;;15.10;53.80;;;;;;5074114;28;20127;-77
2021/04/01 03:22:34;;;;;;;11.77;2.90;;;15.00;54.20;;;;;;5075078;28;20463;-77
2021/04/01 03:24:59;;;;;;;5.68;2.80;;;15.00;53.90;;;;;;5075347;28;20140;-77
2021/04/01 03:27:25;;;;;;;7.57;2.83;;;15.00;53.60;;;;;;5075255;28;20204;-78
2021/04/01 03:30:06;;;;;;;10.93;3.08;;;14.90;53.40;;;;;;5074414;28;20117;-77
2021/04/01 03:32:37;;;;;;;12.38;2.40;;;14.90;52.80;;;;;;5075462;28;20044;-79
2021/04/01 03:35:05;;;;;;;8.48;2.35;;;14.90;52.60;;;;;;5073491;28;20058;-77
2021/04/01 03:37:31;;;;;;;6.13;2.45;;;14.90;52.40;;;;;;5073924;28;20040;-78
2021/04/01 03:39:57;;;;;;;14.30;2.47;;;14.80;51.60;;;;;;5073544;28;20041;-77
2021/04/01 03:42:24;;;;;;;11.35;3.08;;;14.90;51.40;;;;;;5075202;28;20042;-77
2021/04/01 03:44:51;;;;;;;6.50;2.42;;;15.00;50.60;;;;;;5072968;28;20063;-77
2021/04/01 03:47:17;;;;;;;9.80;2.25;;;15.00;49.80;;;;;;5075019;28;20036;-77
2021/04/01 03:49:43;;;;;;;10.27;2.38;;;15.00;49.60;;;;;;5075145;28;20435;-77
2021/04/01 03:52:09;;;;;;;5.38;2.22;;;15.00;49.50;;;;;;5073666;28;20134;-77
2021/04/01 03:54:35;;;;;;;9.73;2.50;;;14.90;49.80;;;;;;5074772;28;20040;-77
2021/04/01 03:57:01;;;;;;;9.82;2.42;;;14.90;50.00;;;;;;5075195;28;20044;-77
2021/04/01 03:59:40;;;;;;;7.53;2.28;;;14.80;50.40;;;;;;5074977;28;20128;-77
2021/04/01 04:04:44;;;;;;;8.02;2.53;;;14.70;51.20;;;;;;5075069;28;20036;-77
2021/04/01 04:15:08;;;;;;;7.18;2.38;;;14.50;51.60;;;;;;5074658;28;20508;-77
2021/04/01 04:17:34;;;;;;;12.88;2.78;;;14.40;51.60;;;;;;5074357;28;20055;-77
2021/04/01 04:20:00;;;;;;;10.75;2.83;;;14.40;51.70;;;;;;5073438;28;20036;-77
2021/04/01 04:22:26;;;;;;;6.88;2.72;;;14.40;51.30;;;;;;5074019;28;20060;-77
2021/04/01 04:24:54;;;;;;;8.60;2.17;;;14.40;51.30;;;;;;5072970;28;20047;-77
2021/04/01 04:27:41;;;;;;;7.35;1.95;;;14.40;51.60;;;;;;5073229;28;20039;-77
2021/04/01 04:30:07;;;;;;;4.35;2.50;;;14.30;51.40;;;;;;5074279;28;20035;-77
2021/04/01 04:32:34;;;;;;;5.95;2.00;;;14.30;51.70;;;;;;5074140;28;20082;-77
2021/04/01 04:35:01;;;;;;;13.90;4.72;;;14.20;51.70;;;;;;5089951;28;20044;-77
2021/04/01 04:37:27;;;;;;;14.70;3.55;;;14.20;51.90;;;;;;5073108;28;20181;-76
2021/04/01 04:39:53;;;;;;;9.20;2.20;;;14.20;51.90;;;;;;5072618;28;20064;-77
2021/04/01 04:42:20;;;;;;;7.78;2.03;;;14.20;51.60;;;;;;5072692;28;20098;-77
2021/04/01 04:44:46;;;;;;;9.07;2.58;;;14.20;51.50;;;;;;5073110;28;20528;-77
2021/04/01 04:47:12;;;;;;;11.40;2.80;;;14.20;51.50;;;;;;5072922;28;20076;-76
2021/04/01 04:49:37;;;;;;;7.43;2.97;;;14.20;51.90;;;;;;5074429;28;20064;-76
2021/04/01 04:52:04;;;;;;;4.95;2.38;;;14.10;52.50;;;;;;5074498;28;20452;-76
2021/04/01 04:54:31;;;;;;;12.23;2.50;;;14.00;52.80;;;;;;5089437;28;20382;-76
2021/04/01 04:57:06;;;;;;;9.05;2.85;;;13.90;53.40;;;;;;5075621;28;20066;-76
2021/04/01 04:59:37;;;;;;;8.85;2.53;;;13.90;53.50;;;;;;5077949;28;20093;-77
2021/04/01 05:04:58;;;;;;;8.48;2.95;;;13.90;53.10;;;;;;5118169;28;20081;-77
2021/04/01 05:07:24;;;;;;;8.40;2.72;;;13.90;53.20;;;;;;5116910;28;20039;-77
2021/04/01 05:09:50;;;;;;;7.95;2.67;;;13.90;53.20;;;;;;5118650;28;20059;-77
2021/04/01 05:12:16;;;;;;;10.15;2.95;;;13.90;53.10;;;;;;5117669;28;20569;-77
2021/04/01 05:14:43;;;;;;;12.10;2.72;;;14.00;52.90;;;;;;5117755;28;20038;-77
2021/04/01 05:17:09;;;;;;;11.85;3.15;;;14.00;52.90;;;;;;5118686;28;20035;-77
2021/04/01 05:19:37;;;;;;;8.20;2.88;;;14.00;52.50;;;;;;5118705;28;20035;-77
2021/04/01 05:22:12;;;;;;;16.20;3.67;;;14.00;52.30;;;;;;5117078;28;20117;-77
2021/04/01 05:24:38;;;;;;;;;;;14.00;52.60;;;;;;5117358;28;20036;-77
2021/04/01 05:29:40;;;;;;;10.77;2.30;;;13.90;53.10;;;;;;5118459;28;20036;-78
2021/04/01 05:32:07;;;;;;;11.77;3.00;;;13.90;53.00;;;;;;5117255;28;20416;-80
2021/04/01 05:34:35;;;;;;;15.48;3.30;;;13.80;53.00;;;;;;5118590;28;20035;-80
2021/04/01 05:37:02;;;;;;;8.27;2.67;;;13.80;53.40;;;;;;5118228;28;20078;-80
2021/04/01 05:39:32;;;;;;;9.70;3.03;;;13.80;53.70;;;;;;5118267;28;20073;-78
2021/04/01 05:42:00;;;;;;;9.38;3.10;;;13.70;54.10;;;;;;5118541;28;20028;-77
2021/04/01 05:49:34;;;;;;;11.43;2.67;;;13.70;54.50;;;;;;5118471;28;20519;-78
2021/04/01 05:57:40;;;;;;;13.10;4.00;;;13.70;54.40;;;;;;5118211;28;20084;-79
2021/04/01 06:03:32;;;;;;;70.75;7.25;;;13.70;54.50;;;;;;5118508;28;20027;-80
2021/04/01 06:06:06;;;;;;;23.25;3.97;;;13.70;54.60;;;;;;5116764;28;20104;-77
2021/04/01 06:11:07;;;;;;;14.68;3.33;;;13.60;54.70;;;;;;5202817;22;20458;-79
2021/04/01 06:13:44;;;;;;;8.50;3.10;;;13.60;54.20;;;;;;5035287;28;20033;-77
2021/04/01 06:16:12;;;;;;;12.77;2.75;;;13.70;54.30;;;;;;5037906;28;20131;-78
2021/04/01 06:18:42;;;;;;;14.40;3.20;;;13.70;53.70;;;;;;5039037;28;20039;-79
2021/04/01 06:21:13;;;;;;;9.13;3.42;;;13.70;53.60;;;;;;5056736;28;20039;-78
2021/04/01 06:23:43;;;;;;;8.38;2.88;;;13.70;54.00;;;;;;5037846;28;20569;-77
2021/04/01 06:26:17;;;;;;;17.88;3.38;;;13.80;53.60;;;;;;5038467;28;20556;-78
2021/04/01 06:28:54;;;;;;;12.18;2.70;;;13.80;53.30;;;;;;5038459;28;20396;-80
2021/04/01 06:31:27;;;;;;;9.55;2.75;;;13.80;52.80;;;;;;5038468;28;20037;-78
2021/04/01 06:33:58;;;;;;;10.10;3.08;;;13.80;52.70;;;;;;5055927;28;20048;-81
2021/04/01 06:36:30;;;;;;;9.75;2.60;;;13.90;52.50;;;;;;5038372;28;20055;-80
2021/04/01 06:38:56;;;;;;;10.02;2.92;;;13.90;52.20;;;;;;5038025;28;20051;-80
2021/04/01 06:41:24;;;;;;;12.13;2.90;;;13.90;51.80;;;;;;5038412;28;20041;-81
2021/04/01 06:43:50;;;;;;;11.15;3.05;;;14.00;51.90;;;;;;5038462;28;20047;-80
2021/04/01 06:46:20;;;;;;;12.85;3.03;;;14.00;51.80;;;;;;5038833;28;20037;-80
2021/04/01 06:51:35;;;;;;;9.05;2.72;;;14.10;50.30;;;;;;5056513;28;20064;-80
2021/04/01 07:04:45;;;;;;;;;;;14.40;48.50;;;;;;5056852;28;20043;-82
2021/04/01 07:07:16;;;;;;;16.02;3.28;;;14.50;47.00;;;;;;5055868;28;19919;-81
2021/04/01 07:12:30;;;;;;;11.48;2.35;;;14.70;46.50;;;;;;5055568;28;20036;-80
2021/04/01 07:15:02;;;;;;;6.32;2.17;;;14.70;46.00;;;;;;5037687;28;20045;-81
2021/04/01 07:17:36;;;;;;;11.70;3.13;;;14.80;46.20;;;;;;5037903;28;20393;-80
2021/04/01 07:20:22;;;;;;;7.65;2.70;;;14.90;45.90;;;;;;5037068;28;20036;-81
2021/04/01 07:47:32;;;;;;;10.15;3.28;;;15.60;43.20;;;;;;5054539;28;20569;-82
2021/04/01 07:50:22;;;;;;;9.57;3.00;;;15.70;43.00;;;;;;5036755;28;20052;-83
2021/04/01 07:52:59;;;;;;;12.43;2.05;;;15.80;42.30;;;;;;5036893;28;20127;-82
2021/04/01 07:55:34;;;;;;;13.45;2.90;;;15.90;41.60;;;;;;5054396;28;20045;-81
2021/04/01 08:01:54;;;;;;;6.65;1.92;;;16.20;41.20;;;;;;5054637;28;20548;-79
2021/04/01 08:06:27;;;;;;;12.38;2.40;;;16.50;39.80;;;;;;5054333;28;20086;-79
2021/04/01 08:08:58;;;;;;;13.38;2.08;;;16.60;39.50;;;;;;5035866;28;20451;-81
2021/04/01 08:11:28;;;;;;;9.57;2.10;;;16.60;39.20;;;;;;5036024;28;20115;-77
2021/04/01 08:14:08;;;;;;;5.18;1.63;;;16.70;39.20;;;;;;5036437;28;20037;-82
2021/04/01 08:16:51;;;;;;;4.68;1.92;;;16.80;38.60;;;;;;5037310;28;20037;-79
2021/04/01 08:19:21;;;;;;;5.03;2.05;;;16.90;38.70;;;;;;5036646;28;20093;-78
2021/04/01 08:21:48;;;;;;;5.50;2.40;;;16.90;38.60;;;;;;5037883;28;20060;-79
2021/04/01 08:24:31;;;;;;;9.93;2.53;;;17.00;38.80;;;;;;5036412;28;20127;-79
2021/04/01 08:36:00;;;;;;;8.70;2.72;;;17.50;36.90;;;;;;5025285;28;20045;-82
2021/04/01 08:38:25;;;;;;;4.50;1.88;;;17.70;36.00;;;;;;5036277;28;20040;-83
2021/04/01 08:40:52;;;;;;;9.90;2.42;;;17.70;36.30;;;;;;5035795;28;20040;-80
2021/04/01 08:43:55;;;;;;;10.60;2.15;;;17.80;36.10;;;;;;5036328;28;20047;-80
2021/04/01 08:46:24;;;;;;;9.45;3.00;;;17.90;35.50;;;;;;5054404;28;20039;-80
2021/04/01 08:49:09;;;;;;;7.60;2.30;;;17.90;35.80;;;;;;5054043;28;20033;-79
2021/04/01 08:51:41;;;;;;;13.20;3.00;;;17.90;35.50;;;;;;5035454;28;20029;-80
2021/04/01 08:54:12;;;;;;;6.88;2.05;;;18.00;35.40;;;;;;5035664;28;20520;-79
2021/04/01 08:56:59;;;;;;;3.42;1.60;;;18.00;35.10;;;;;;5035892;28;20075;-79
2021/04/01 08:59:56;;;;;;;5.95;1.75;;;18.20;34.80;;;;;;5035975;28;20043;-79
2021/04/01 09:02:23;;;;;;;11.82;2.15;;;18.20;34.60;;;;;;5053517;28;20064;-79
2021/04/01 09:04:52;;;;;;;9.75;2.20;;;18.30;34.10;;;;;;5035733;28;20037;-80
2021/04/01 09:07:28;;;;;;;9.75;1.75;;;18.50;34.70;;;;;;5054082;28;20037;-80
2021/04/01 09:10:03;;;;;;;6.30;2.15;;;18.80;34.80;;;;;;5035738;28;20501;-80
2021/04/01 09:12:36;;;;;;;4.43;1.50;;;18.80;34.50;;;;;;5036281;28;20037;-80
2021/04/01 09:15:06;;;;;;;7.38;1.88;;;18.90;34.70;;;;;;5036319;28;20045;-79
2021/04/01 09:17:35;;;;;;;15.32;2.83;;;18.90;34.20;;;;;;5036482;28;20045;-80
2021/04/01 09:20:13;;;;;;;21.58;3.70;;;19.00;33.80;;;;;;5036062;28;20040;-80
2021/04/01 09:22:44;;;;;;;11.68;2.65;;;19.20;33.90;;;;;;5054765;28;20040;-83
2021/04/01 09:25:10;;;;;;;4.13;1.73;;;19.40;33.80;;;;;;5036101;28;20033;-82
2021/04/01 09:27:47;;;;;;;6.57;1.85;;;19.50;33.60;;;;;;5036279;28;20037;-81
2021/04/01 09:30:14;;;;;;;5.30;1.70;;;19.50;34.30;;;;;;5054176;28;20037;-81
2021/04/01 09:32:42;;;;;;;5.43;1.52;;;19.60;33.70;;;;;;5037895;28;20522;-81
2021/04/01 09:35:09;;;;;;;3.45;1.48;;;19.60;33.70;;;;;;5053983;28;20048;-81
2021/04/01 09:37:48;;;;;;;13.40;2.13;;;19.50;33.20;;;;;;5035536;28;20082;-81
2021/04/01 09:40:14;;;;;;;6.18;1.75;;;19.70;33.30;;;;;;5035326;28;20194;-80
2021/04/01 09:42:42;;;;;;;11.18;2.05;;;19.80;33.50;;;;;;5036893;28;20098;-81
2021/04/01 09:45:10;;;;;;;16.80;2.88;;;20.00;32.90;;;;;;5039326;28;20037;-81
2021/04/01 09:47:50;;;;;;;6.47;2.15;;;20.00;32.60;;;;;;5039398;28;20060;-81
2021/04/01 09:50:17;;;;;;;9.90;2.15;;;20.00;32.20;;;;;;5057785;28;20065;-81
2021/04/01 09:52:59;;;;;;;9.05;2.17;;;20.20;32.90;;;;;;5039434;28;20036;-81
2021/04/01 09:55:34;;;;;;;7.13;1.98;;;20.40;32.50;;;;;;5056890;28;20064;-81
2021/04/01 09:58:14;;;;;;;5.85;2.33;;;20.40;32.40;;;;;;5039586;28;20045;-81
2021/04/01 10:03:33;;;;;;;6.15;2.03;;;20.60;33.00;;;;;;5057243;28;20041;-81
2021/04/01 10:05:59;;;;;;;8.25;2.10;;;20.70;33.10;;;;;;5038942;28;20033;-82
2021/04/01 10:08:29;;;;;;;5.03;1.67;;;20.90;33.10;;;;;;5038929;28;20619;-83
2021/04/01 10:10:58;;;;;;;12.18;1.73;;;21.10;31.50;;;;;;5056547;28;20041;-82
2021/04/01 10:13:30;;;;;;;9.55;1.98;;;21.10;31.40;;;;;;5038954;28;20037;-82
2021/04/01 10:15:58;;;;;;;5.00;1.90;;;21.00;31.60;;;;;;5038092;28;20033;-82
2021/04/01 10:18:25;;;;;;;6.15;2.13;;;21.20;31.20;;;;;;5056661;28;20060;-82
2021/04/01 10:21:24;;;;;;;3.90;1.67;;;21.20;30.90;;;;;;5038377;28;20037;-82
2021/04/01 10:23:56;;;;;;;6.60;2.33;;;21.20;31.20;;;;;;5033368;28;20045;-81
2021/04/01 10:26:34;;;;;;;5.78;2.33;;;21.30;30.80;;;;;;5038643;28;20044;-82
2021/04/01 10:29:15;;;;;;;9.07;2.28;;;21.30;30.80;;;;;;5056671;28;20029;-81
2021/04/01 10:31:49;;;;;;;6.00;1.73;;;21.50;31.20;;;;;;5038917;28;20037;-81
2021/04/01 10:34:30;;;;;;;6.45;1.92;;;21.70;31.10;;;;;;5056820;28;20095;-82
2021/04/01 10:37:00;;;;;;;8.40;2.30;;;21.50;31.00;;;;;;5056195;28;20044;-81
2021/04/01 10:39:31;;;;;;;8.35;2.58;;;21.90;30.60;;;;;;5056153;28;20068;-81
2021/04/01 10:41:58;;;;;;;5.30;2.08;;;22.00;29.70;;;;;;5037904;28;20041;-83
2021/04/01 10:44:24;;;;;;;12.02;2.05;;;22.00;30.10;;;;;;5038051;28;20120;-81
2021/04/01 10:46:53;;;;;;;6.47;2.65;;;21.90;30.90;;;;;;5038065;28;20036;-81
2021/04/01 10:49:21;;;;;;;8.50;2.10;;;22.10;30.10;;;;;;5037728;28;20127;-81
2021/04/01 10:51:50;;;;;;;8.70;2.22;;;22.50;29.50;;;;;;5038151;28;20052;-81
2021/04/01 10:54:16;;;;;;;11.27;5.70;;;22.50;30.00;;;;;;5055261;28;20044;-81
2021/04/01 10:56:53;;;;;;;8.40;2.78;;;22.70;29.30;;;;;;5037939;28;20093;-81
2021/04/01 10:59:43;;;;;;;7.30;2.10;;;22.90;29.60;;;;;;5037684;28;20036;-81
2021/04/01 11:02:16;;;;;;;8.77;3.08;;;22.80;29.40;;;;;;5020793;28;20486;-81
2021/04/01 11:04:45;;;;;;;6.38;2.20;;;22.90;29.60;;;;;;5020535;28;20046;-81
2021/04/01 11:07:12;;;;;;;14.60;3.13;;;22.80;30.00;;;;;;5019333;28;20065;-81
2021/04/01 11:09:44;;;;;;;11.73;2.45;;;23.00;29.60;;;;;;5034978;28;20411;-81
2021/04/01 11:12:18;;;;;;;6.10;2.17;;;23.00;29.10;;;;;;5017322;28;20038;-81
2021/04/01 11:15:00;;;;;;;7.05;1.85;;;23.00;28.60;;;;;;5035446;28;20042;-81
2021/04/01 11:17:30;;;;;;;10.13;2.20;;;23.20;28.90;;;;;;5035255;28;20045;-81
2021/04/01 11:19:59;;;;;;;9.27;2.20;;;23.40;29.00;;;;;;5017316;28;20048;-81
2021/04/01 11:22:26;;;;;;;8.10;1.85;;;23.50;29.20;;;;;;5016973;28;20111;-81
2021/04/01 11:24:53;;;;;;;9.07;1.65;;;23.50;28.90;;;;;;5017528;28;20041;-81
2021/04/01 11:27:21;;;;;;;11.65;3.05;;;23.70;29.20;;;;;;5017765;28;20038;-85
2021/04/01 11:30:20;;;;;;;8.68;2.67;;;23.80;28.80;;;;;;5016938;28;20035;-83
2021/04/01 11:32:54;;;;;;;10.15;2.80;;;24.00;29.10;;;;;;5029607;28;20044;-83
2021/04/01 11:35:24;;;;;;;9.55;4.25;;;24.10;28.20;;;;;;5035479;28;20622;-80
2021/04/01 11:37:54;;;;;;;13.23;3.78;;;23.80;28.70;;;;;;5037179;28;20052;-78
2021/04/01 11:40:20;;;;;;;11.23;2.45;;;23.80;28.40;;;;;;5036552;28;20033;-78
2021/04/01 11:43:01;;;;;;;8.60;2.42;;;23.90;28.50;;;;;;5054552;28;20072;-78
2021/04/01 11:45:33;;;;;;;6.78;1.90;;;23.80;27.70;;;;;;5036200;28;20040;-77
2021/04/01 11:48:00;;;;;;;14.82;2.45;;;23.70;28.20;;;;;;5054245;28;20029;-76
2021/04/01 11:50:27;;;;;;;7.03;2.00;;;24.00;27.90;;;;;;5054774;28;20041;-76
2021/04/01 11:52:59;;;;;;;11.15;2.47;;;24.00;27.40;;;;;;5054556;28;20068;-76
2021/04/01 11:55:25;;;;;;;7.38;2.15;;;24.00;27.80;;;;;;5054091;28;20036;-76
2021/04/01 11:57:52;;;;;;;7.22;1.92;;;24.20;28.30;;;;;;5053486;28;20041;-76
2021/04/01 12:00:30;;;;;;;7.82;1.85;;;24.50;27.70;;;;;;5054296;28;20052;-76
2021/04/01 12:03:12;;;;;;;9.13;2.50;;;24.30;27.80;;;;;;5053559;28;20052;-76
2021/04/01 12:05:47;;;;;;;8.13;2.63;;;24.20;27.60;;;;;;5035194;28;20539;-76
2021/04/01 12:08:13;;;;;;;4.95;1.70;;;24.20;27.80;;;;;;5054574;28;20519;-76
2021/04/01 12:10:40;;;;;;;7.68;3.75;;;24.30;28.70;;;;;;5054266;28;20057;-76
2021/04/01 12:13:06;;;;;;;9.00;1.85;;;24.60;29.10;;;;;;5054294;28;20119;-76
2021/04/01 12:15:40;;;;;;;6.93;1.80;;;24.60;28.30;;;;;;5054191;28;20037;-76
2021/04/01 12:18:08;;;;;;;12.80;1.90;;;24.70;27.90;;;;;;5036171;28;20451;-76
2021/04/01 12:20:36;;;;;;;10.63;1.98;;;24.70;27.90;;;;;;5054425;28;20041;-76
2021/04/01 12:23:16;;;;;;;9.68;2.20;;;24.80;28.50;;;;;;5036172;28;20048;-77
2021/04/01 12:25:43;;;;;;;8.98;1.48;;;25.00;28.20;;;;;;5036293;28;20058;-77
2021/04/01 12:28:20;;;;;;;8.85;1.95;;;24.90;27.00;;;;;;5054076;28;20044;-77
2021/04/01 12:30:48;;;;;;;10.85;1.90;;;25.00;27.10;;;;;;5054774;28;20033;-76
2021/04/01 12:33:20;;;;;;;8.55;3.13;;;25.20;26.90;;;;;;5036055;28;20127;-76
2021/04/01 12:35:57;;;;;;;7.00;1.85;;;25.20;27.60;;;;;;5054174;28;20045;-77
2021/04/01 12:38:32;;;;;;;6.57;1.70;;;25.10;27.90;;;;;;5054198;28;20075;-76
2021/04/01 12:41:22;;;;;;;5.60;1.83;;;25.30;28.50;;;;;;5035478;28;20033;-76
2021/04/01 12:43:48;;;;;;;9.23;2.10;;;25.30;27.60;;;;;;5040415;28;20045;-76
2021/04/01 12:46:14;;;;;;;7.57;2.08;;;25.10;27.50;;;;;;5054118;28;20037;-76
2021/04/01 12:48:44;;;;;;;10.48;2.28;;;25.20;28.00;;;;;;5053769;28;20099;-76
2021/04/01 12:51:12;;;;;;;7.50;1.98;;;25.00;28.00;;;;;;5054141;28;20504;-76
2021/04/01 12:53:38;;;;;;;5.68;1.80;;;25.00;28.00;;;;;;5035784;28;20037;-76
2021/04/01 12:56:13;;;;;;;6.97;1.85;;;25.10;27.50;;;;;;5053666;28;20087;-77
2021/04/01 13:01:48;;;;;;;8.80;1.90;;;25.10;27.70;;;;;;5053648;28;20037;-78
2021/04/01 13:04:15;;;;;;;9.23;1.90;;;25.00;27.90;;;;;;5035301;28;20412;-77
2021/04/01 13:09:40;;;;;;;132.10;13.82;;;25.30;27.50;;;;;;5052994;28;20036;-76
2021/04/01 13:12:14;;;;;;;12.20;2.60;;;25.60;27.10;;;;;;5053503;28;20041;-76
2021/04/01 13:14:41;;;;;;;6.82;1.75;;;25.60;27.00;;;;;;5035399;28;20033;-76
2021/04/01 13:17:07;;;;;;;9.98;2.30;;;25.40;27.10;;;;;;5055036;28;20051;-76
2021/04/01 13:19:34;;;;;;;6.97;1.73;;;25.50;26.90;;;;;;5057609;28;20033;-76
2021/04/01 13:24:37;;;;;;;5.57;1.67;;;25.70;25.90;;;;;;5057331;28;20029;-76
2021/04/01 13:27:09;;;;;;;9.38;2.17;;;25.80;25.60;;;;;;5057654;28;20072;-76
2021/04/01 13:29:37;;;;;;;7.97;1.67;;;26.00;25.80;;;;;;5057333;28;20041;-77
2021/04/01 13:32:23;;;;;;;7.95;1.75;;;26.20;25.80;;;;;;5057135;28;20060;-78
2021/04/01 13:35:03;;;;;;;7.55;1.70;;;26.30;26.10;;;;;;5057497;28;20037;-78
2021/04/01 13:37:48;;;;;;;10.30;1.83;;;26.10;26.60;;;;;;5039310;28;20047;-78
2021/04/01 13:40:18;;;;;;;8.85;2.22;;;26.50;26.90;;;;;;5057290;28;20045;-78
2021/04/01 13:42:53;;;;;;;4.82;1.33;;;26.70;27.20;;;;;;5038867;28;20045;-78
2021/04/01 13:45:23;;;;;;;8.63;2.33;;;26.70;27.10;;;;;;5038540;28;20092;-78
2021/04/01 13:47:57;;;;;;;43.55;5.90;;;26.80;27.40;;;;;;5039015;28;20490;-78
2021/04/01 13:50:26;;;;;;;;;;;26.70;27.30;;;;;;5040029;28;20504;-76
2021/04/01 13:53:03;;;;;;;9.85;1.80;;;26.70;27.10;;;;;;5056984;28;19917;-77
2021/04/01 13:55:44;;;;;;;6.00;2.65;;;26.70;26.30;;;;;;5056588;28;20055;-77
2021/04/01 13:58:23;;;;;;;7.55;1.90;;;26.60;26.70;;;;;;5038471;28;20116;-78
2021/04/01 14:09:33;;;;;;;8.98;2.05;;;26.60;26.40;;;;;;5056299;28;20128;-76
2021/04/01 14:12:02;;;;;;;5.72;2.40;;;26.70;26.50;;;;;;5057155;28;20048;-78
2021/04/01 14:14:31;;;;;;;6.90;2.80;;;26.70;26.10;;;;;;5056827;28;20040;-78
2021/04/01 14:16:57;;;;;;;8.23;1.75;;;26.90;25.90;;;;;;5057095;28;20501;-77
2021/04/01 14:19:26;;;;;;;13.18;2.25;;;26.90;25.70;;;;;;5056176;28;20071;-78
2021/04/01 14:21:57;;;;;;;10.73;1.80;;;27.00;25.50;;;;;;5056559;28;20052;-78
2021/04/01 14:24:29;;;;;;;5.75;1.92;;;27.10;25.30;;;;;;5037981;28;20041;-76
2021/04/01 14:29:39;;;;;;;9.40;2.03;;;27.00;25.00;;;;;;5056037;28;20441;-76
2021/04/01 14:32:08;;;;;;;19.65;3.70;;;27.10;24.60;;;;;;5056827;28;20037;-76
2021/04/01 14:34:37;;;;;;;7.38;2.00;;;27.10;25.00;;;;;;5056470;28;20040;-76
2021/04/01 14:37:03;;;;;;;10.93;2.55;;;27.20;24.80;;;;;;5056392;28;20037;-76
2021/04/01 14:39:31;;;;;;;8.43;1.65;;;27.20;24.90;;;;;;5056174;28;20124;-76
2021/04/01 14:42:07;;;;;;;14.38;2.10;;;27.10;25.10;;;;;;5056258;28;20049;-76
2021/04/01 14:44:34;;;;;;;9.93;2.08;;;26.90;24.80;;;;;;5056665;28;20045;-77
2021/04/01 14:47:00;;;;;;;10.20;2.22;;;26.80;25.00;;;;;;5039357;28;20036;-76
2021/04/01 14:49:26;;;;;;;5.47;1.50;;;26.80;25.50;;;;;;5037673;28;20036;-78
2021/04/01 14:51:52;;;;;;;11.27;1.70;;;27.00;24.80;;;;;;5056308;28;20499;-78